sensor_id;sensor_type;location;lat;lon;timestamp;temperature;humidity
6903;DHT22;20232;49.408;8.702;2022-09-13T04:02:13;13.60;99.90
6903;DHT22;20232;49.408;8.702;2022-09-13T04:04:40;13.60;99.90
6903;DHT22;20232;49.408;8.702;2022-09-13T04:07:08;13.70;99.90
6903;DHT22;20232;49.408;8.702;2022-09-13T04:09:34;13.70;99.90
6903;DHT22;20232;49.408;8.702;2022-09-13T04:11:59;13.70;99.90
6903;DHT22;20232;49.408;8.702;2022-09-13T04:14:25;13.70;99.90
6903;DHT22;20232;49.408;8.702;2022-09-13T04:16:55;13.70;99.90
6903;DHT22;20232;49.408;8.702;2022-09-13T04:19:22;13.80;99.90
6903;DHT22;20232;49.408;8.702;2022-09-13T04:21:52;13.80;99.90
6903;DHT22;20232;49.408;8.702;2022-09-13T04:24:18;13.80;99.90
6903;DHT22;20232;49.408;8.702;2022-09-13T04:26:47;13.80;99.90
6903;DHT22;20232;49.408;8.702;2022-09-13T04:29:13;13.80;99.90
6903;DHT22;20232;49.408;8.702;2022-09-13T04:31:39;13.80;99.90
6903;DHT22;20232;49.408;8.702;2022-09-13T04:34:04;13.80;99.90
6903;DHT22;20232;49.408;8.702;2022-09-13T04:36:31;13.80;99.90
6903;DHT22;20232;49.408;8.702;2022-09-13T04:38:57;13.80;99.90
6903;DHT22;20232;49.408;8.702;2022-09-13T04:41:24;13.80;99.90
6903;DHT22;20232;49.408;8.702;2022-09-13T04:43:49;13.70;99.90
6903;DHT22;20232;49.408;8.702;2022-09-13T04:46:15;13.80;99.90
6903;DHT22;20232;49.408;8.702;2022-09-13T04:48:41;13.80;99.90
6903;DHT22;20232;49.408;8.702;2022-09-13T04:51:07;13.80;99.90
6903;DHT22;20232;49.408;8.702;2022-09-13T04:53:33;13.80;99.90
6903;DHT22;20232;49.408;8.702;2022-09-13T04:56:03;13.80;99.90
6903;DHT22;20232;49.408;8.702;2022-09-13T04:58:29;13.80;99.90
6903;DHT22;20232;49.408;8.702;2022-09-13T05:01:06;13.80;99.90
6903;DHT22;20232;49.408;8.702;2022-09-13T05:03:33;13.90;99.90
6903;DHT22;20232;49.408;8.702;2022-09-13T05:06:07;13.90;99.90
6903;DHT22;20232;49.408;8.702;2022-09-13T05:08:34;13.90;99.90
6903;DHT22;20232;49.408;8.702;2022-09-13T05:11:00;13.90;99.90
6903;DHT22;20232;49.408;8.702;2022-09-13T05:13:27;13.80;99.90
6903;DHT22;20232;49.408;8.702;2022-09-13T05:16:05;13.80;99.90
6903;DHT22;20232;49.408;8.702;2022-09-13T05:18:33;13.80;99.90
6903;DHT22;20232;49.408;8.702;2022-09-13T05:21:00;13.80;99.90
6903;DHT22;20232;49.408;8.702;2022-09-13T05:23:27;13.80;99.90
6903;DHT22;20232;49.408;8.702;2022-09-13T05:25:59;13.80;99.90
6903;DHT22;20232;49.408;8.702;2022-09-13T05:28:27;13.90;99.90
6903;DHT22;20232;49.408;8.702;2022-09-13T05:31:15;14.00;99.90
6903;DHT22;20232;49.408;8.702;2022-09-13T05:33:39;14.10;99.90
6903;DHT22;20232;49.408;8.702;2022-09-13T05:36:05;14.10;99.90
6903;DHT22;20232;49.408;8.702;2022-09-13T05:38:31;14.10;99.90
6903;DHT22;20232;49.408;8.702;2022-09-13T05:41:00;14.00;99.90
6903;DHT22;20232;49.408;8.702;2022-09-13T05:43:29;14.00;99.90
6903;DHT22;20232;49.408;8.702;2022-09-13T05:46:06;14.10;99.90
6903;DHT22;20232;49.408;8.702;2022-09-13T05:48:33;14.10;99.90
6903;DHT22;20232;49.408;8.702;2022-09-13T05:51:07;14.20;99.90
6903;DHT22;20232;49.408;8.702;2022-09-13T05:53:35;14.20;99.90
6903;DHT22;20232;49.408;8.702;2022-09-13T05:56:02;14.20;99.90
6903;DHT22;20232;49.408;8.702;2022-09-13T05:58:27;14.20;99.90
6903;DHT22;20232;49.408;8.702;2022-09-13T06:00:54;14.20;99.90
6903;DHT22;20232;49.408;8.702;2022-09-13T06:03:21;14.20;99.90
6903;DHT22;20232;49.408;8.702;2022-09-13T06:05:47;14.30;99.90
6903;DHT22;20232;49.408;8.702;2022-09-13T06:08:13;14.40;99.90
6903;DHT22;20232;49.408;8.702;2022-09-13T06:10:38;14.50;99.90
6903;DHT22;20232;49.408;8.702;2022-09-13T06:13:04;14.50;99.90
6903;DHT22;20232;49.408;8.702;2022-09-13T06:15:30;14.60;99.90
6903;DHT22;20232;49.408;8.702;2022-09-13T06:17:55;14.70;99.90
6903;DHT22;20232;49.408;8.702;2022-09-13T06:20:21;14.70;99.90
6903;DHT22;20232;49.408;8.702;2022-09-13T06:22:47;14.70;99.90
6903;DHT22;20232;49.408;8.702;2022-09-13T06:25:13;14.80;99.90
6903;DHT22;20232;49.408;8.702;2022-09-13T06:27:39;15.10;99.90
6903;DHT22;20232;49.408;8.702;2022-09-13T06:30:05;15.20;99.90
6903;DHT22;20232;49.408;8.702;2022-09-13T06:32:35;15.20;99.90
6903;DHT22;20232;49.408;8.702;2022-09-13T06:35:01;15.10;99.90
6903;DHT22;20232;49.408;8.702;2022-09-13T06:37:27;15.10;99.90
6903;DHT22;20232;49.408;8.702;2022-09-13T06:39:52;15.10;99.90
6903;DHT22;20232;49.408;8.702;2022-09-13T06:42:18;15.10;99.90
6903;DHT22;20232;49.408;8.702;2022-09-13T06:44:44;15.20;99.90
6903;DHT22;20232;49.408;8.702;2022-09-13T06:47:13;15.30;99.90
6903;DHT22;20232;49.408;8.702;2022-09-13T06:49:38;15.40;99.90
6903;DHT22;20232;49.408;8.702;2022-09-13T06:52:04;15.50;99.90
6903;DHT22;20232;49.408;8.702;2022-09-13T06:54:30;15.50;99.90
6903;DHT22;20232;49.408;8.702;2022-09-13T06:56:55;15.60;99.90
6903;DHT22;20232;49.408;8.702;2022-09-13T06:59:21;15.80;99.90
6903;DHT22;20232;49.408;8.702;2022-09-13T07:01:46;16.00;99.90
6903;DHT22;20232;49.408;8.702;2022-09-13T07:04:15;16.10;99.90
6903;DHT22;20232;49.408;8.702;2022-09-13T07:06:43;16.40;99.90
6903;DHT22;20232;49.408;8.702;2022-09-13T07:09:15;16.50;99.90
6903;DHT22;20232;49.408;8.702;2022-09-13T07:11:42;16.70;99.90
6903;DHT22;20232;49.408;8.702;2022-09-13T07:14:16;16.70;99.90
6903;DHT22;20232;49.408;8.702;2022-09-13T07:16:42;16.80;99.90
6903;DHT22;20232;49.408;8.702;2022-09-13T07:19:13;16.80;99.90
6903;DHT22;20232;49.408;8.702;2022-09-13T07:21:39;16.80;99.90
6903;DHT22;20232;49.408;8.702;2022-09-13T07:24:05;16.90;99.90
6903;DHT22;20232;49.408;8.702;2022-09-13T07:26:31;17.10;99.90
6903;DHT22;20232;49.408;8.702;2022-09-13T07:28:59;17.20;99.90
6903;DHT22;20232;49.408;8.702;2022-09-13T07:31:27;17.00;99.90
6903;DHT22;20232;49.408;8.702;2022-09-13T07:34:04;17.10;99.90
6903;DHT22;20232;49.408;8.702;2022-09-13T07:36:32;17.30;99.90
6903;DHT22;20232;49.408;8.702;2022-09-13T07:38:58;17.40;99.90
6903;DHT22;20232;49.408;8.702;2022-09-13T07:41:25;17.60;99.90
6903;DHT22;20232;49.408;8.702;2022-09-13T07:43:52;17.60;99.90
6903;DHT22;20232;49.408;8.702;2022-09-13T07:46:20;17.80;99.90
6903;DHT22;20232;49.408;8.702;2022-09-13T07:48:46;17.90;99.90
6903;DHT22;20232;49.408;8.702;2022-09-13T07:51:14;18.00;99.90
6903;DHT22;20232;49.408;8.702;2022-09-13T07:53:41;18.20;99.90
6903;DHT22;20232;49.408;8.702;2022-09-13T07:56:12;18.30;99.90
6903;DHT22;20232;49.408;8.702;2022-09-13T07:58:39;18.00;99.90
6903;DHT22;20232;49.408;8.702;2022-09-13T08:01:11;18.20;99.90
6903;DHT22;20232;49.408;8.702;2022-09-13T08:03:37;18.50;99.90
6903;DHT22;20232;49.408;8.702;2022-09-13T08:06:04;18.60;99.90
6903;DHT22;20232;49.408;8.702;2022-09-13T08:08:30;18.80;99.90
6903;DHT22;20232;49.408;8.702;2022-09-13T08:10:58;18.70;99.90
6903;DHT22;20232;49.408;8.702;2022-09-13T08:13:24;18.70;99.90
6903;DHT22;20232;49.408;8.702;2022-09-13T08:15:50;18.70;99.90
6903;DHT22;20232;49.408;8.702;2022-09-13T08:18:19;18.90;99.90
6903;DHT22;20232;49.408;8.702;2022-09-13T08:20:44;18.80;99.90
6903;DHT22;20232;49.408;8.702;2022-09-13T08:23:11;19.00;99.90
6903;DHT22;20232;49.408;8.702;2022-09-13T08:25:37;19.00;99.90
6903;DHT22;20232;49.408;8.702;2022-09-13T08:28:08;19.20;99.90
6903;DHT22;20232;49.408;8.702;2022-09-13T08:35:31;19.50;99.90
6903;DHT22;20232;49.408;8.702;2022-09-13T08:37:57;20.20;99.90
6903;DHT22;20232;49.408;8.702;2022-09-13T08:40:26;20.40;99.90
6903;DHT22;20232;49.408;8.702;2022-09-13T08:43:12;20.70;99.90
6903;DHT22;20232;49.408;8.702;2022-09-13T08:45:42;20.90;99.90
6903;DHT22;20232;49.408;8.702;2022-09-13T08:48:18;20.90;99.90
6903;DHT22;20232;49.408;8.702;2022-09-13T08:50:48;20.80;99.90
6903;DHT22;20232;49.408;8.702;2022-09-13T08:53:25;20.80;99.90
6903;DHT22;20232;49.408;8.702;2022-09-13T08:56:10;21.00;99.90
6903;DHT22;20232;49.408;8.702;2022-09-13T09:01:17;21.90;99.90
6903;DHT22;20232;49.408;8.702;2022-09-13T09:03:51;22.30;99.90
6903;DHT22;20232;49.408;8.702;2022-09-13T09:06:19;22.10;99.90
6903;DHT22;20232;49.408;8.702;2022-09-13T09:08:53;22.30;99.90
6903;DHT22;20232;49.408;8.702;2022-09-13T09:11:40;22.40;99.90
6903;DHT22;20232;49.408;8.702;2022-09-13T09:14:23;22.50;99.90
6903;DHT22;20232;49.408;8.702;2022-09-13T09:16:57;22.60;99.90
6903;DHT22;20232;49.408;8.702;2022-09-13T09:22:01;23.00;99.90
6903;DHT22;20232;49.408;8.702;2022-09-13T09:24:33;23.70;99.90
6903;DHT22;20232;49.408;8.702;2022-09-13T09:27:01;24.40;99.90
6903;DHT22;20232;49.408;8.702;2022-09-13T09:29:31;25.20;99.90
6903;DHT22;20232;49.408;8.702;2022-09-13T09:35:20;26.30;99.90
6903;DHT22;20232;49.408;8.702;2022-09-13T09:40:47;27.30;95.30
6903;DHT22;20232;49.408;8.702;2022-09-13T09:43:28;26.80;95.50
6903;DHT22;20232;49.408;8.702;2022-09-13T09:45:56;26.80;95.30
6903;DHT22;20232;49.408;8.702;2022-09-13T09:48:27;27.10;94.50
6903;DHT22;20232;49.408;8.702;2022-09-13T09:50:56;27.30;93.90
6903;DHT22;20232;49.408;8.702;2022-09-13T09:53:38;27.40;93.20
6903;DHT22;20232;49.408;8.702;2022-09-13T09:56:23;27.70;93.60
6903;DHT22;20232;49.408;8.702;2022-09-13T09:58:50;27.70;92.30
6903;DHT22;20232;49.408;8.702;2022-09-13T10:01:33;27.40;92.40
6903;DHT22;20232;49.408;8.702;2022-09-13T10:04:05;27.00;93.50
6903;DHT22;20232;49.408;8.702;2022-09-13T10:06:39;26.60;94.10
6903;DHT22;20232;49.408;8.702;2022-09-13T10:11:54;26.30;93.70
6903;DHT22;20232;49.408;8.702;2022-09-13T10:17:13;26.30;94.30
6903;DHT22;20232;49.408;8.702;2022-09-13T10:19:44;26.30;94.30
6903;DHT22;20232;49.408;8.702;2022-09-13T10:22:15;26.40;94.50
6903;DHT22;20232;49.408;8.702;2022-09-13T10:24:41;26.80;94.30
6903;DHT22;20232;49.408;8.702;2022-09-13T10:27:23;26.80;93.70
6903;DHT22;20232;49.408;8.702;2022-09-13T10:29:52;26.70;92.80
6903;DHT22;20232;49.408;8.702;2022-09-13T10:32:21;26.60;94.40
6903;DHT22;20232;49.408;8.702;2022-09-13T10:34:47;26.30;94.10
6903;DHT22;20232;49.408;8.702;2022-09-13T10:37:20;26.00;95.10
6903;DHT22;20232;49.408;8.702;2022-09-13T10:39:55;26.00;96.10
6903;DHT22;20232;49.408;8.702;2022-09-13T10:42:24;26.10;95.50
6903;DHT22;20232;49.408;8.702;2022-09-13T10:45:02;26.70;93.70
6903;DHT22;20232;49.408;8.702;2022-09-13T11:31:25;25.00;94.10
6903;DHT22;20232;49.408;8.702;2022-09-13T11:37:11;24.50;94.40
6903;DHT22;20232;49.408;8.702;2022-09-13T11:40:11;24.40;97.20
6903;DHT22;20232;49.408;8.702;2022-09-13T11:43:36;24.40;97.00
6903;DHT22;20232;49.408;8.702;2022-09-13T11:45:51;24.60;96.60
6903;DHT22;20232;49.408;8.702;2022-09-13T11:57:46;24.70;97.60
6903;DHT22;20232;49.408;8.702;2022-09-13T12:05:25;24.80;98.00
6903;DHT22;20232;49.408;8.702;2022-09-13T12:08:17;25.20;98.00
6903;DHT22;20232;49.408;8.702;2022-09-13T12:11:05;25.60;96.70
6903;DHT22;20232;49.408;8.702;2022-09-13T12:13:44;26.00;95.40
6903;DHT22;20232;49.408;8.702;2022-09-13T12:32:46;26.90;92.40
6903;DHT22;20232;49.408;8.702;2022-09-13T12:49:22;24.80;98.30
6903;DHT22;20232;49.408;8.702;2022-09-13T12:58:21;24.30;99.90
6903;DHT22;20232;49.408;8.702;2022-09-13T13:01:09;24.30;99.90
6903;DHT22;20232;49.408;8.702;2022-09-13T13:04:03;24.30;99.90
6903;DHT22;20232;49.408;8.702;2022-09-13T13:06:36;24.30;99.60
6903;DHT22;20232;49.408;8.702;2022-09-13T13:09:17;24.30;99.90
6903;DHT22;20232;49.408;8.702;2022-09-13T13:11:47;24.40;99.90
6903;DHT22;20232;49.408;8.702;2022-09-13T13:14:42;24.20;99.90
6903;DHT22;20232;49.408;8.702;2022-09-13T13:17:33;24.30;99.90
6903;DHT22;20232;49.408;8.702;2022-09-13T13:19:59;24.30;99.90
6903;DHT22;20232;49.408;8.702;2022-09-13T13:39:12;27.30;96.10
6903;DHT22;20232;49.408;8.702;2022-09-13T13:57:30;30.70;91.90
6903;DHT22;20232;49.408;8.702;2022-09-13T14:00:21;31.20;89.70
6903;DHT22;20232;49.408;8.702;2022-09-13T14:05:30;31.00;87.70
6903;DHT22;20232;49.408;8.702;2022-09-13T14:10:49;29.90;90.10
6903;DHT22;20232;49.408;8.702;2022-09-13T14:19:17;28.30;92.40
6903;DHT22;20232;49.408;8.702;2022-09-13T14:21:44;28.50;92.00
6903;DHT22;20232;49.408;8.702;2022-09-13T14:24:20;28.10;91.40
6903;DHT22;20232;49.408;8.702;2022-09-13T14:26:51;27.50;91.90
6903;DHT22;20232;49.408;8.702;2022-09-13T14:29:20;27.40;92.10
6903;DHT22;20232;49.408;8.702;2022-09-13T14:31:48;27.20;92.10
6903;DHT22;20232;49.408;8.702;2022-09-13T14:34:34;26.90;93.00
6903;DHT22;20232;49.408;8.702;2022-09-13T14:37:05;26.60;93.70
6903;DHT22;20232;49.408;8.702;2022-09-13T14:39:31;26.50;94.00
6903;DHT22;20232;49.408;8.702;2022-09-13T14:42:00;26.40;94.40
6903;DHT22;20232;49.408;8.702;2022-09-13T14:44:27;26.40;94.70
6903;DHT22;20232;49.408;8.702;2022-09-13T14:47:07;26.20;94.60
6903;DHT22;20232;49.408;8.702;2022-09-13T14:49:41;26.20;94.20
6903;DHT22;20232;49.408;8.702;2022-09-13T14:52:15;26.10;94.00
6903;DHT22;20232;49.408;8.702;2022-09-13T14:54:48;26.10;94.90
6903;DHT22;20232;49.408;8.702;2022-09-13T14:57:43;26.00;95.40
6903;DHT22;20232;49.408;8.702;2022-09-13T15:00:17;25.80;95.80
6903;DHT22;20232;49.408;8.702;2022-09-13T15:03:09;25.80;96.10
6903;DHT22;20232;49.408;8.702;2022-09-13T15:05:36;25.70;96.00
6903;DHT22;20232;49.408;8.702;2022-09-13T15:08:26;25.70;96.60
6903;DHT22;20232;49.408;8.702;2022-09-13T15:13:18;25.70;96.40
6903;DHT22;20232;49.408;8.702;2022-09-13T15:15:44;25.50;96.50
6903;DHT22;20232;49.408;8.702;2022-09-13T15:23:15;25.00;97.60
6903;DHT22;20232;49.408;8.702;2022-09-13T15:25:47;25.10;97.80
6903;DHT22;20232;49.408;8.702;2022-09-13T15:28:25;24.90;98.70
6903;DHT22;20232;49.408;8.702;2022-09-13T15:30:55;24.90;98.20
6903;DHT22;20232;49.408;8.702;2022-09-13T15:33:32;24.70;98.00
6903;DHT22;20232;49.408;8.702;2022-09-13T15:36:21;24.80;98.20
6903;DHT22;20232;49.408;8.702;2022-09-13T15:41:38;25.10;99.40
6903;DHT22;20232;49.408;8.702;2022-09-13T15:44:06;25.10;99.00
6903;DHT22;20232;49.408;8.702;2022-09-13T15:46:58;25.50;99.30
6903;DHT22;20232;49.408;8.702;2022-09-13T15:49:27;25.60;99.50
6903;DHT22;20232;49.408;8.702;2022-09-13T15:51:55;25.70;99.90
6903;DHT22;20232;49.408;8.702;2022-09-13T15:54:22;25.90;98.50
6903;DHT22;20232;49.408;8.702;2022-09-13T15:56:49;25.80;98.40
6903;DHT22;20232;49.408;8.702;2022-09-13T15:59:19;25.80;99.50
6903;DHT22;20232;49.408;8.702;2022-09-13T16:01:47;25.60;99.20
6903;DHT22;20232;49.408;8.702;2022-09-13T16:04:14;25.70;98.80
6903;DHT22;20232;49.408;8.702;2022-09-13T16:06:39;26.00;98.10
6903;DHT22;20232;49.408;8.702;2022-09-13T16:09:25;25.90;98.20
6903;DHT22;20232;49.408;8.702;2022-09-13T16:11:51;25.70;98.10
6903;DHT22;20232;49.408;8.702;2022-09-13T16:14:17;25.50;98.70
6903;DHT22;20232;49.408;8.702;2022-09-13T16:16:44;25.50;99.10
6903;DHT22;20232;49.408;8.702;2022-09-13T16:19:19;25.60;98.90
6903;DHT22;20232;49.408;8.702;2022-09-13T16:21:45;25.20;99.20
6903;DHT22;20232;49.408;8.702;2022-09-13T16:24:11;24.70;99.90
6903;DHT22;20232;49.408;8.702;2022-09-13T16:26:37;24.50;99.90
6903;DHT22;20232;49.408;8.702;2022-09-13T16:29:03;24.20;99.90
6903;DHT22;20232;49.408;8.702;2022-09-13T16:31:29;24.10;99.90
6903;DHT22;20232;49.408;8.702;2022-09-13T16:33:54;23.90;99.90
6903;DHT22;20232;49.408;8.702;2022-09-13T16:36:20;23.70;99.90
6903;DHT22;20232;49.408;8.702;2022-09-13T16:38:46;23.60;99.90
6903;DHT22;20232;49.408;8.702;2022-09-13T16:41:11;23.50;99.90
6903;DHT22;20232;49.408;8.702;2022-09-13T16:43:37;23.30;99.90
6903;DHT22;20232;49.408;8.702;2022-09-13T16:46:10;23.20;99.90
6903;DHT22;20232;49.408;8.702;2022-09-13T16:48:37;23.00;99.90
6903;DHT22;20232;49.408;8.702;2022-09-13T16:51:04;22.80;99.90
6903;DHT22;20232;49.408;8.702;2022-09-13T16:53:35;22.70;99.90
6903;DHT22;20232;49.408;8.702;2022-09-13T16:56:10;22.70;99.90
6903;DHT22;20232;49.408;8.702;2022-09-13T16:58:37;22.60;99.90
6903;DHT22;20232;49.408;8.702;2022-09-13T17:01:09;22.40;99.90
6903;DHT22;20232;49.408;8.702;2022-09-13T17:03:35;22.20;99.90
6903;DHT22;20232;49.408;8.702;2022-09-13T17:06:03;22.20;99.90
6903;DHT22;20232;49.408;8.702;2022-09-13T17:08:30;22.30;99.90
6903;DHT22;20232;49.408;8.702;2022-09-13T17:10:55;22.30;99.90
6903;DHT22;20232;49.408;8.702;2022-09-13T17:13:21;22.20;99.90
6903;DHT22;20232;49.408;8.702;2022-09-13T17:15:48;22.20;99.90
6903;DHT22;20232;49.408;8.702;2022-09-13T17:18:14;22.20;99.90
6903;DHT22;20232;49.408;8.702;2022-09-13T17:20:47;22.10;99.90
6903;DHT22;20232;49.408;8.702;2022-09-13T17:23:14;22.00;99.90
6903;DHT22;20232;49.408;8.702;2022-09-13T17:25:50;22.00;99.90
6903;DHT22;20232;49.408;8.702;2022-09-13T17:28:17;21.90;99.90
6903;DHT22;20232;49.408;8.702;2022-09-13T17:30:45;21.90;99.90
6903;DHT22;20232;49.408;8.702;2022-09-13T17:33:11;21.80;99.90
6903;DHT22;20232;49.408;8.702;2022-09-13T17:35:37;21.70;99.90
6903;DHT22;20232;49.408;8.702;2022-09-13T17:38:03;21.70;99.90
6903;DHT22;20232;49.408;8.702;2022-09-13T17:40:29;21.60;99.90
6903;DHT22;20232;49.408;8.702;2022-09-13T17:42:55;21.50;99.90
6903;DHT22;20232;49.408;8.702;2022-09-13T17:45:21;21.50;99.90
6903;DHT22;20232;49.408;8.702;2022-09-13T17:47:47;21.30;99.90
6903;DHT22;20232;49.408;8.702;2022-09-13T17:50:13;21.30;99.90
6903;DHT22;20232;49.408;8.702;2022-09-13T17:52:39;21.20;99.90
6903;DHT22;20232;49.408;8.702;2022-09-13T17:55:05;21.20;99.90
6903;DHT22;20232;49.408;8.702;2022-09-13T17:57:31;21.10;99.90
6903;DHT22;20232;49.408;8.702;2022-09-13T17:59:57;21.10;99.90
6903;DHT22;20232;49.408;8.702;2022-09-13T18:02:23;21.00;99.90
6903;DHT22;20232;49.408;8.702;2022-09-13T18:04:50;21.00;99.90
6903;DHT22;20232;49.408;8.702;2022-09-13T18:07:16;21.00;99.90
6903;DHT22;20232;49.408;8.702;2022-09-13T18:09:41;20.90;99.90
6903;DHT22;20232;49.408;8.702;2022-09-13T18:12:07;20.90;99.90
6903;DHT22;20232;49.408;8.702;2022-09-13T18:14:33;20.90;99.90
6903;DHT22;20232;49.408;8.702;2022-09-13T18:16:58;20.90;99.90
6903;DHT22;20232;49.408;8.702;2022-09-13T18:19:24;20.80;99.90
6903;DHT22;20232;49.408;8.702;2022-09-13T18:21:50;20.80;99.90
6903;DHT22;20232;49.408;8.702;2022-09-13T18:24:15;20.70;99.90
6903;DHT22;20232;49.408;8.702;2022-09-13T18:26:41;20.70;99.90
6903;DHT22;20232;49.408;8.702;2022-09-13T18:29:10;20.70;99.90
6903;DHT22;20232;49.408;8.702;2022-09-13T18:31:37;20.70;99.90
6903;DHT22;20232;49.408;8.702;2022-09-13T18:34:06;20.60;99.90
6903;DHT22;20232;49.408;8.702;2022-09-13T18:36:33;20.70;99.90
6903;DHT22;20232;49.408;8.702;2022-09-13T18:38:59;20.60;99.90
6903;DHT22;20232;49.408;8.702;2022-09-13T18:41:36;20.60;99.90
6903;DHT22;20232;49.408;8.702;2022-09-13T18:44:02;20.50;99.90
6903;DHT22;20232;49.408;8.702;2022-09-13T18:46:32;20.50;99.90
6903;DHT22;20232;49.408;8.702;2022-09-13T18:48:59;20.60;99.90
6903;DHT22;20232;49.408;8.702;2022-09-13T18:51:30;20.60;99.90
6903;DHT22;20232;49.408;8.702;2022-09-13T18:53:57;20.60;99.90
6903;DHT22;20232;49.408;8.702;2022-09-13T18:56:24;20.60;99.90
6903;DHT22;20232;49.408;8.702;2022-09-13T18:58:50;20.70;99.90
6903;DHT22;20232;49.408;8.702;2022-09-13T19:01:22;20.80;99.90
6903;DHT22;20232;49.408;8.702;2022-09-13T19:03:50;20.80;99.90
6903;DHT22;20232;49.408;8.702;2022-09-13T19:06:22;20.60;99.90
6903;DHT22;20232;49.408;8.702;2022-09-13T19:08:48;20.60;99.90
6903;DHT22;20232;49.408;8.702;2022-09-13T19:11:15;20.50;99.90
6903;DHT22;20232;49.408;8.702;2022-09-13T19:13:41;20.40;99.90
6903;DHT22;20232;49.408;8.702;2022-09-13T19:16:10;20.40;99.90
6903;DHT22;20232;49.408;8.702;2022-09-13T19:18:37;20.30;99.90
6903;DHT22;20232;49.408;8.702;2022-09-13T19:21:08;20.30;99.90
6903;DHT22;20232;49.408;8.702;2022-09-13T19:23:34;20.20;99.90
6903;DHT22;20232;49.408;8.702;2022-09-13T19:26:31;20.20;99.90
6903;DHT22;20232;49.408;8.702;2022-09-13T19:28:58;20.20;99.90
6903;DHT22;20232;49.408;8.702;2022-09-13T19:31:32;20.20;99.90
6903;DHT22;20232;49.408;8.702;2022-09-13T19:33:58;20.20;99.90
6903;DHT22;20232;49.408;8.702;2022-09-13T19:36:25;20.10;99.90
6903;DHT22;20232;49.408;8.702;2022-09-13T19:38:56;20.10;99.90
6903;DHT22;20232;49.408;8.702;2022-09-13T19:41:23;20.10;99.90
6903;DHT22;20232;49.408;8.702;2022-09-13T19:43:53;20.00;99.90
6903;DHT22;20232;49.408;8.702;2022-09-13T19:46:24;20.00;99.90
6903;DHT22;20232;49.408;8.702;2022-09-13T19:48:53;20.00;99.90
6903;DHT22;20232;49.408;8.702;2022-09-13T19:53:48;20.10;99.90
6903;DHT22;20232;49.408;8.702;2022-09-13T19:56:16;20.00;99.90
6903;DHT22;20232;49.408;8.702;2022-09-13T19:58:43;20.10;99.90
6903;DHT22;20232;49.408;8.702;2022-09-13T20:01:12;20.10;99.90
6903;DHT22;20232;49.408;8.702;2022-09-13T20:03:39;20.10;99.90
6903;DHT22;20232;49.408;8.702;2022-09-13T20:06:08;20.10;99.90
6903;DHT22;20232;49.408;8.702;2022-09-13T20:08:34;20.10;99.90
6903;DHT22;20232;49.408;8.702;2022-09-13T20:11:05;20.10;99.90
6903;DHT22;20232;49.408;8.702;2022-09-13T20:13:31;20.10;99.90
6903;DHT22;20232;49.408;8.702;2022-09-13T20:15:57;20.10;99.90
6903;DHT22;20232;49.408;8.702;2022-09-13T20:18:22;20.10;99.90
6903;DHT22;20232;49.408;8.702;2022-09-13T20:20:49;20.10;99.90
6903;DHT22;20232;49.408;8.702;2022-09-13T20:23:16;20.10;99.90
6903;DHT22;20232;49.408;8.702;2022-09-13T20:25:43;20.10;99.90
6903;DHT22;20232;49.408;8.702;2022-09-13T20:28:09;20.00;99.90
6903;DHT22;20232;49.408;8.702;2022-09-13T20:30:35;20.10;99.90
6903;DHT22;20232;49.408;8.702;2022-09-13T20:33:02;20.10;99.90
6903;DHT22;20232;49.408;8.702;2022-09-13T20:35:28;20.10;99.90
6903;DHT22;20232;49.408;8.702;2022-09-13T20:37:56;20.00;99.90
6903;DHT22;20232;49.408;8.702;2022-09-13T20:40:22;20.00;99.90
6903;DHT22;20232;49.408;8.702;2022-09-13T20:42:49;20.00;99.90
6903;DHT22;20232;49.408;8.702;2022-09-13T20:45:15;19.90;99.90
6903;DHT22;20232;49.408;8.702;2022-09-13T20:47:41;19.90;99.90
6903;DHT22;20232;49.408;8.702;2022-09-13T20:50:08;19.80;99.90
6903;DHT22;20232;49.408;8.702;2022-09-13T20:52:34;19.80;99.90
6903;DHT22;20232;49.408;8.702;2022-09-13T20:54:59;19.80;99.90
6903;DHT22;20232;49.408;8.702;2022-09-13T20:57:25;19.70;99.90
6903;DHT22;20232;49.408;8.702;2022-09-13T20:59:52;19.70;99.90
6903;DHT22;20232;49.408;8.702;2022-09-13T21:02:18;19.70;99.90
6903;DHT22;20232;49.408;8.702;2022-09-13T21:04:43;19.70;99.90
6903;DHT22;20232;49.408;8.702;2022-09-13T21:07:12;19.70;99.90
6903;DHT22;20232;49.408;8.702;2022-09-13T21:09:56;19.70;99.90
6903;DHT22;20232;49.408;8.702;2022-09-13T21:12:27;19.70;99.90
6903;DHT22;20232;49.408;8.702;2022-09-13T21:14:53;19.70;99.90
6903;DHT22;20232;49.408;8.702;2022-09-13T21:17:19;19.60;99.90
6903;DHT22;20232;49.408;8.702;2022-09-13T21:19:44;19.60;99.90
6903;DHT22;20232;49.408;8.702;2022-09-13T21:22:10;19.50;99.90
6903;DHT22;20232;49.408;8.702;2022-09-13T21:24:36;19.50;99.90
6903;DHT22;20232;49.408;8.702;2022-09-13T21:27:03;19.50;99.90
6903;DHT22;20232;49.408;8.702;2022-09-13T21:29:28;19.50;99.90
6903;DHT22;20232;49.408;8.702;2022-09-13T21:31:54;19.50;99.90
6903;DHT22;20232;49.408;8.702;2022-09-13T21:34:20;19.40;99.90
6903;DHT22;20232;49.408;8.702;2022-09-13T21:36:46;19.40;99.90
6903;DHT22;20232;49.408;8.702;2022-09-13T21:39:13;19.40;99.90
6903;DHT22;20232;49.408;8.702;2022-09-13T21:41:39;19.30;99.90
6903;DHT22;20232;49.408;8.702;2022-09-13T21:44:05;19.30;99.90
6903;DHT22;20232;49.408;8.702;2022-09-13T21:46:33;19.20;99.90
6903;DHT22;20232;49.408;8.702;2022-09-13T21:49:04;19.30;99.90
6903;DHT22;20232;49.408;8.702;2022-09-13T21:51:33;19.30;99.90
6903;DHT22;20232;49.408;8.702;2022-09-13T21:54:00;19.30;99.90
6903;DHT22;20232;49.408;8.702;2022-09-13T21:56:29;19.30;99.90
6903;DHT22;20232;49.408;8.702;2022-09-13T21:58:57;19.30;99.90
6903;DHT22;20232;49.408;8.702;2022-09-13T22:01:25;19.30;99.90
6903;DHT22;20232;49.408;8.702;2022-09-13T22:03:51;19.20;99.90
6903;DHT22;20232;49.408;8.702;2022-09-13T22:06:18;19.20;99.90
6903;DHT22;20232;49.408;8.702;2022-09-13T22:08:46;19.20;99.90
6903;DHT22;20232;49.408;8.702;2022-09-13T22:11:14;19.30;99.90
6903;DHT22;20232;49.408;8.702;2022-09-13T22:13:42;19.30;99.90
6903;DHT22;20232;49.408;8.702;2022-09-13T22:16:14;19.30;99.90
6903;DHT22;20232;49.408;8.702;2022-09-13T22:18:42;19.30;99.90
6903;DHT22;20232;49.408;8.702;2022-09-13T22:21:10;19.30;99.90
6903;DHT22;20232;49.408;8.702;2022-09-13T22:23:36;19.30;99.90
6903;DHT22;20232;49.408;8.702;2022-09-13T22:26:08;19.30;99.90
6903;DHT22;20232;49.408;8.702;2022-09-13T22:28:34;19.30;99.90
6903;DHT22;20232;49.408;8.702;2022-09-13T22:31:06;19.30;99.90
6903;DHT22;20232;49.408;8.702;2022-09-13T22:33:32;19.30;99.90
6903;DHT22;20232;49.408;8.702;2022-09-13T22:36:03;19.30;99.90
6903;DHT22;20232;49.408;8.702;2022-09-13T22:38:30;19.30;99.90
6903;DHT22;20232;49.408;8.702;2022-09-13T22:41:01;19.30;99.90
6903;DHT22;20232;49.408;8.702;2022-09-13T22:43:27;19.30;99.90
6903;DHT22;20232;49.408;8.702;2022-09-13T22:46:03;19.30;99.90
6903;DHT22;20232;49.408;8.702;2022-09-13T22:48:29;19.40;99.90
6903;DHT22;20232;49.408;8.702;2022-09-13T22:50:55;19.40;99.90
6903;DHT22;20232;49.408;8.702;2022-09-13T22:53:22;19.40;99.90
6903;DHT22;20232;49.408;8.702;2022-09-13T22:55:48;19.40;99.90
6903;DHT22;20232;49.408;8.702;2022-09-13T22:58:15;19.40;99.90
